Time;durP1;ratioP1;P1;durP2;ratioP2;P2;SDS_P1;SDS_P2;PMS_P1;PMS_P2;Temp;Humidity;BMP_temperature;BMP_pressure;BME280_temperature;BME280_humidity;BME280_pressure;Samples;Min_cycle;Max_cycle;Signal;HPM_P1;HPM_P2
2022/05/02 00:00:09;;;;;;;1999.90;999.90;;;5.20;1.00;;;;;;4975980;28;20085;-75
2022/05/02 00:02:35;;;;;;;1999.90;999.90;;;5.20;1.00;;;;;;4993240;28;20479;-76
2022/05/02 00:05:01;;;;;;;1999.90;999.90;;;5.10;1.00;;;;;;4992528;28;20463;-76
2022/05/02 00:07:26;;;;;;;1999.90;999.90;;;5.10;1.00;;;;;;4993229;28;20053;-76
2022/05/02 00:09:52;;;;;;;1999.90;999.90;;;5.10;1.00;;;;;;4992934;28;20453;-76
2022/05/02 00:12:18;;;;;;;1999.90;999.90;;;5.10;1.00;;;;;;4993087;28;20133;-76
2022/05/02 00:14:44;;;;;;;1999.90;999.90;;;5.30;1.00;;;;;;4993140;28;20042;-75
2022/05/02 00:17:09;;;;;;;1999.90;999.90;;;5.50;1.00;;;;;;4975292;28;20483;-75
2022/05/02 00:19:35;;;;;;;1999.90;999.90;;;6.10;1.00;;;;;;4991841;28;20065;-75
2022/05/02 00:22:01;;;;;;;1999.90;999.90;;;3.80;1.00;;;;;;4974813;28;20050;-75
2022/05/02 00:24:27;;;;;;;1999.90;999.90;;;5.00;1.00;;;;;;4992276;28;20043;-76
2022/05/02 00:26:53;;;;;;;1999.90;999.90;;;4.90;1.00;;;;;;4992644;28;20046;-76
2022/05/02 00:29:19;;;;;;;1999.90;999.90;;;6.70;1.00;;;;;;4992928;28;20050;-75
2022/05/02 00:31:45;;;;;;;1999.90;999.90;;;4.90;1.00;;;;;;4992735;28;20054;-75
2022/05/02 00:34:12;;;;;;;1999.90;999.90;;;4.90;1.00;;;;;;4975022;28;20446;-75
2022/05/02 00:36:38;;;;;;;1999.90;999.90;;;6.50;1.00;;;;;;4992581;28;20058;-76
2022/05/02 00:39:04;;;;;;;1999.90;999.90;;;4.80;1.00;;;;;;4992526;28;20049;-76
2022/05/02 00:41:30;;;;;;;1999.90;999.90;;;5.30;1.00;;;;;;4992675;28;20494;-76
2022/05/02 00:43:55;;;;;;;1999.90;999.90;;;6.50;1.00;;;;;;4992541;28;20433;-76
2022/05/02 00:46:26;;;;;;;1999.90;999.90;;;4.80;1.00;;;;;;4992511;28;20403;-76
2022/05/02 00:48:53;;;;;;;1999.90;999.90;;;6.10;1.00;;;;;;4992676;28;20146;-76
2022/05/02 00:51:20;;;;;;;1999.90;999.90;;;6.20;1.00;;;;;;4974749;28;20193;-76
2022/05/02 00:53:49;;;;;;;1999.90;999.90;;;4.80;1.00;;;;;;4992303;28;20104;-75
2022/05/02 00:56:20;;;;;;;1999.90;999.90;;;5.30;1.00;;;;;;4992090;28;20053;-75
2022/05/02 00:58:48;;;;;;;1999.90;999.90;;;4.80;1.00;;;;;;4992455;28;20057;-75
2022/05/02 01:01:13;;;;;;;1999.90;999.90;;;5.70;1.00;;;;;;4992048;28;20129;-75
2022/05/02 01:03:39;;;;;;;1999.90;999.90;;;5.10;1.00;;;;;;4992293;28;20436;-75
2022/05/02 01:08:52;;;;;;;1999.90;999.90;;;4.60;1.00;;;;;;4992373;28;20050;-76
2022/05/02 01:11:18;;;;;;;1999.90;999.90;;;6.50;1.00;;;;;;4992080;28;20206;-77
2022/05/02 01:13:46;;;;;;;1999.90;999.90;;;4.60;1.00;;;;;;4974995;28;20038;-76
2022/05/02 01:16:12;;;;;;;;;;;4.50;1.00;;;;;;4975231;28;20053;-76
2022/05/02 01:18:37;;;;;;;1999.90;999.90;;;7.20;1.00;;;;;;4992202;28;19922;-75
2022/05/02 01:21:20;;;;;;;1999.90;999.90;;;4.90;1.00;;;;;;4991556;28;20046;-76
2022/05/02 01:23:51;;;;;;;1999.90;999.90;;;4.50;1.00;;;;;;4992358;28;20042;-75
2022/05/02 01:26:18;;;;;;;1999.90;999.90;;;5.10;1.00;;;;;;4974539;28;20188;-76
2022/05/02 01:28:49;;;;;;;1999.90;999.90;;;4.40;1.00;;;;;;4992330;28;20120;-75
2022/05/02 01:31:16;;;;;;;1999.90;999.90;;;4.20;1.00;;;;;;4991844;28;20138;-75
2022/05/02 01:33:42;;;;;;;1999.90;999.90;;;4.70;1.00;;;;;;4991924;28;20531;-75
2022/05/02 01:36:08;;;;;;;1999.90;999.90;;;4.40;1.00;;;;;;4977244;28;20057;-75
2022/05/02 01:38:35;;;;;;;1999.90;999.90;;;;;;;;;;4995745;28;20050;-75
2022/05/02 01:41:03;;;;;;;1999.90;999.90;;;4.30;1.00;;;;;;4978626;28;20137;-77
2022/05/02 01:43:29;;;;;;;1999.90;999.90;;;4.30;1.00;;;;;;4995845;28;20042;-75
2022/05/02 01:45:54;;;;;;;1999.90;999.90;;;4.30;1.00;;;;;;4995903;28;20065;-75
2022/05/02 01:48:20;;;;;;;1999.90;999.90;;;3.30;1.00;;;;;;4978169;28;20054;-76
2022/05/02 01:50:46;;;;;;;1999.90;999.90;;;4.20;1.00;;;;;;4978011;28;20108;-75
2022/05/02 01:53:11;;;;;;;1999.90;999.90;;;3.40;1.00;;;;;;4995052;28;20078;-75
2022/05/02 01:55:37;;;;;;;1999.90;999.90;;;4.20;1.00;;;;;;4962313;28;20046;-75
2022/05/02 01:58:03;;;;;;;1999.90;999.90;;;;;;;;;;4978075;28;20048;-79
2022/05/02 02:00:29;;;;;;;1999.90;999.90;;;;;;;;;;4978246;28;20133;-76
2022/05/02 02:02:55;;;;;;;1999.90;999.90;;;4.20;1.00;;;;;;4978096;28;20082;-76
2022/05/02 02:08:04;;;;;;;1999.90;999.90;;;4.40;1.00;;;;;;4995381;28;20091;-76
2022/05/02 02:10:30;;;;;;;1999.90;999.90;;;4.00;1.00;;;;;;4995558;28;20054;-75
2022/05/02 02:12:56;;;;;;;1999.90;999.90;;;4.10;1.00;;;;;;4995334;28;20130;-75
2022/05/02 02:15:21;;;;;;;1999.90;999.90;;;6.00;1.00;;;;;;4977512;28;20047;-75
2022/05/02 02:17:47;;;;;;;1999.90;999.90;;;5.50;1.00;;;;;;4961730;28;20046;-75
2022/05/02 02:20:13;;;;;;;1999.90;999.90;;;5.50;1.00;;;;;;4977408;28;20483;-75
2022/05/02 02:22:40;;;;;;;1999.90;999.90;;;4.30;1.00;;;;;;4995255;28;20046;-75
2022/05/02 02:25:06;;;;;;;1999.90;999.90;;;3.90;1.00;;;;;;4995035;28;20109;-79
2022/05/02 02:27:32;;;;;;;1999.90;999.90;;;3.90;1.00;;;;;;4994862;28;20061;-75
2022/05/02 02:29:59;;;;;;;1999.90;999.90;;;4.30;1.00;;;;;;4993725;28;20065;-75
2022/05/02 02:32:25;;;;;;;1999.90;999.90;;;4.70;1.00;;;;;;4994706;28;20061;-75
2022/05/02 02:34:51;;;;;;;1999.90;999.90;;;6.00;1.00;;;;;;4993498;28;20061;-75
2022/05/02 02:37:17;;;;;;;1999.90;999.90;;;3.80;1.00;;;;;;4977488;28;20042;-76
2022/05/02 02:39:45;;;;;;;1999.90;999.90;;;5.40;1.00;;;;;;4977432;28;20121;-76
2022/05/02 02:42:11;;;;;;;1848.45;882.35;;;3.10;1.00;;;;;;4994687;28;20082;-76
2022/05/02 02:44:37;;;;;;;1999.90;999.90;;;5.50;1.00;;;;;;4976965;28;20050;-77
2022/05/02 02:47:03;;;;;;;1999.90;999.90;;;5.90;1.00;;;;;;4976649;28;20042;-76
2022/05/02 02:49:29;;;;;;;1999.90;999.90;;;3.70;1.00;;;;;;4977074;28;20479;-76
2022/05/02 02:51:55;;;;;;;1999.90;999.90;;;5.70;1.00;;;;;;4993528;28;20065;-76
2022/05/02 02:54:21;;;;;;;1999.90;999.90;;;;;;;;;;4992659;28;20362;-76
2022/05/02 02:56:48;;;;;;;1999.90;999.90;;;3.70;1.00;;;;;;4994550;28;20407;-76
2022/05/02 02:59:14;;;;;;;1999.90;999.90;;;3.80;1.00;;;;;;4992851;28;20050;-76
2022/05/02 03:01:40;;;;;;;1999.90;999.90;;;3.60;1.00;;;;;;4994088;28;20144;-76
2022/05/02 03:06:52;;;;;;;1999.90;999.90;;;3.60;1.00;;;;;;4977004;28;20563;-76
2022/05/02 03:09:18;;;;;;;1999.90;999.90;;;3.00;1.00;;;;;;4994220;28;20150;-76
2022/05/02 03:11:44;;;;;;;1999.90;999.90;;;3.50;1.00;;;;;;4994030;28;20148;-76
2022/05/02 03:14:10;;;;;;;1999.90;999.90;;;4.60;1.00;;;;;;4976972;28;20121;-76
2022/05/02 03:16:35;;;;;;;1999.90;999.90;;;3.50;1.00;;;;;;4994450;28;20058;-76
2022/05/02 03:19:01;;;;;;;1999.90;999.90;;;3.00;1.00;;;;;;4994316;28;20402;-76
2022/05/02 03:21:27;;;;;;;1999.90;999.90;;;3.60;1.00;;;;;;4993608;28;20050;-76
2022/05/02 03:23:52;;;;;;;1999.90;999.90;;;3.50;1.00;;;;;;4994093;28;20054;-76
2022/05/02 03:26:18;;;;;;;1999.90;999.90;;;3.00;1.00;;;;;;4992516;28;20082;-76
2022/05/02 03:28:44;;;;;;;1999.90;999.90;;;5.10;1.00;;;;;;4993940;28;20137;-76
2022/05/02 03:31:09;;;;;;;1999.90;999.90;;;5.60;1.00;;;;;;4994015;28;20046;-76
2022/05/02 03:33:35;;;;;;;1999.90;999.90;;;3.40;1.00;;;;;;4993712;28;20101;-76
2022/05/02 03:36:01;;;;;;;1999.90;999.90;;;3.40;1.00;;;;;;4994007;28;20054;-73
2022/05/02 03:38:26;;;;;;;1999.90;999.90;;;3.90;1.00;;;;;;4976324;28;20190;-75
2022/05/02 03:40:52;;;;;;;1999.90;999.90;;;3.30;1.00;;;;;;4993624;28;20047;-76
2022/05/02 03:43:18;;;;;;;1999.90;999.90;;;3.40;1.00;;;;;;4993362;28;20118;-76
2022/05/02 03:45:43;;;;;;;1999.90;999.90;;;3.40;1.00;;;;;;4993230;28;20519;-75
2022/05/02 03:48:09;;;;;;;1999.90;999.90;;;3.30;1.00;;;;;;4993571;28;20050;-75
2022/05/02 03:50:35;;;;;;;1999.90;999.90;;;3.40;1.00;;;;;;4992814;28;20096;-75
2022/05/02 03:53:00;;;;;;;1999.90;999.90;;;5.30;1.00;;;;;;4993198;28;20133;-75
2022/05/02 03:55:26;;;;;;;1999.90;999.90;;;2.00;1.00;;;;;;4993026;28;20054;-76
2022/05/02 03:57:52;;;;;;;1999.90;999.90;;;3.40;1.00;;;;;;4993258;28;20057;-75
2022/05/02 04:00:18;;;;;;;1999.90;999.90;;;3.10;1.00;;;;;;4975605;28;20050;-75
2022/05/02 04:02:44;;;;;;;1999.90;999.90;;;3.30;1.00;;;;;;4975901;28;20217;-75
2022/05/02 04:05:10;;;;;;;1999.90;999.90;;;3.70;1.00;;;;;;4992823;28;20163;-75
2022/05/02 04:07:36;;;;;;;1999.90;999.90;;;4.30;1.00;;;;;;4992639;28;20049;-75
2022/05/02 04:10:02;;;;;;;1999.90;999.90;;;3.30;1.00;;;;;;4993088;28;20430;-75
2022/05/02 04:12:35;;;;;;;1999.90;999.90;;;4.20;1.00;;;;;;4992917;28;20046;-75
2022/05/02 04:15:00;;;;;;;1999.90;999.90;;;3.60;1.00;;;;;;4993102;28;20364;-75
2022/05/02 04:17:26;;;;;;;1999.90;999.90;;;2.80;1.00;;;;;;4991630;28;20058;-75
2022/05/02 04:19:52;;;;;;;1999.90;999.90;;;5.90;1.00;;;;;;4959461;28;20489;-75
2022/05/02 04:22:17;;;;;;;1999.90;999.90;;;3.40;1.00;;;;;;4992631;28;20116;-75
2022/05/02 04:24:43;;;;;;;1999.90;999.90;;;3.20;1.00;;;;;;4991451;28;20387;-75
2022/05/02 04:27:09;;;;;;;1999.90;999.90;;;3.60;1.00;;;;;;4975516;28;20133;-75
2022/05/02 04:29:34;;;;;;;1999.90;999.90;;;3.30;1.00;;;;;;4975188;28;20189;-75
2022/05/02 04:32:00;;;;;;;1999.90;999.90;;;3.30;1.00;;;;;;4992618;28;20105;-75
2022/05/02 04:34:26;;;;;;;1999.90;999.90;;;3.30;1.00;;;;;;4992444;28;20094;-75
2022/05/02 04:36:52;;;;;;;1999.90;999.90;;;3.30;1.00;;;;;;4992359;28;20060;-75
2022/05/02 04:39:17;;;;;;;1999.90;999.90;;;3.30;1.00;;;;;;4992707;28;20050;-75
2022/05/02 04:41:43;;;;;;;1999.90;999.90;;;3.50;1.00;;;;;;4992320;28;20058;-75
2022/05/02 04:44:09;;;;;;;1999.90;999.90;;;5.00;1.00;;;;;;4992636;28;20061;-74
2022/05/02 04:46:34;;;;;;;1999.90;999.90;;;2.90;1.00;;;;;;4974780;28;20063;-75
2022/05/02 04:49:00;;;;;;;1999.90;999.90;;;3.50;1.00;;;;;;4992251;28;20061;-75
2022/05/02 04:51:26;;;;;;;1999.90;999.90;;;2.20;1.00;;;;;;4991862;28;20046;-75
2022/05/02 04:53:51;;;;;;;1999.90;999.90;;;3.40;1.00;;;;;;4992184;28;20112;-76
2022/05/02 04:56:17;;;;;;;1999.90;999.90;;;3.70;1.00;;;;;;4992158;28;20075;-76
2022/05/02 04:58:43;;;;;;;1999.90;999.90;;;3.50;1.00;;;;;;4992252;28;20088;-76
2022/05/02 05:01:08;;;;;;;1999.90;999.90;;;3.50;1.00;;;;;;4992438;28;20086;-76
2022/05/02 05:03:35;;;;;;;1999.90;999.90;;;4.60;1.00;;;;;;4974339;28;20117;-76
2022/05/02 05:06:01;;;;;;;1999.90;999.90;;;3.60;1.00;;;;;;4992166;28;20046;-76
2022/05/02 05:08:27;;;;;;;1999.90;999.90;;;5.90;1.00;;;;;;4992089;28;20057;-77
2022/05/02 05:11:04;;;;;;;1999.90;999.90;;;3.60;1.00;;;;;;4980628;28;20050;-76
2022/05/02 05:17:14;;;;;;;1999.90;999.90;;;4.50;1.00;;;;;;4998454;28;20065;-77
2022/05/02 05:19:58;;;;;;;1999.90;999.90;;;5.30;1.00;;;;;;4998124;28;20062;-78
2022/05/02 05:22:48;;;;;;;1999.90;999.90;;;4.00;1.00;;;;;;4998630;28;20418;-77
2022/05/02 05:25:40;;;;;;;1999.90;999.90;;;4.10;1.00;;;;;;4998526;28;20555;-76
2022/05/02 05:28:09;;;;;;;1999.90;999.90;;;5.10;1.00;;;;;;4998846;28;20097;-76
2022/05/02 05:30:40;;;;;;;1999.90;999.90;;;3.90;1.00;;;;;;4998388;28;20050;-76
2022/05/02 05:33:24;;;;;;;1999.90;999.90;;;4.30;1.00;;;;;;4981675;28;20067;-76
2022/05/02 05:36:22;;;;;;;1999.90;999.90;;;4.40;1.00;;;;;;4998510;28;20046;-76
2022/05/02 05:39:01;;;;;;;1999.90;999.90;;;4.40;1.00;;;;;;4970276;28;20054;-76
2022/05/02 05:41:38;;;;;;;1999.90;999.90;;;5.40;1.00;;;;;;4997425;28;20046;-73
2022/05/02 05:44:09;;;;;;;1999.90;999.90;;;4.50;1.00;;;;;;4998336;28;20046;-75
2022/05/02 05:47:01;;;;;;;1999.90;999.90;;;5.40;1.00;;;;;;4998058;28;20052;-75
2022/05/02 05:49:48;;;;;;;1999.90;999.90;;;5.10;1.00;;;;;;4958333;28;20058;-76
2022/05/02 05:52:16;;;;;;;1999.90;999.90;;;4.80;1.00;;;;;;4998302;28;20109;-75
2022/05/02 05:54:55;;;;;;;1999.90;999.90;;;6.10;1.00;;;;;;4998013;28;20061;-74
2022/05/02 05:57:32;;;;;;;1999.90;999.90;;;5.50;1.00;;;;;;4998772;28;20088;-75
2022/05/02 06:00:12;;;;;;;1999.90;999.90;;;5.10;1.00;;;;;;4998453;28;20065;-75
2022/05/02 06:02:50;;;;;;;1999.90;999.90;;;6.00;1.00;;;;;;4980963;28;20129;-75
2022/05/02 06:05:17;;;;;;;1999.90;999.90;;;6.20;1.00;;;;;;4998281;28;20054;-74
2022/05/02 06:07:44;;;;;;;1699.85;798.72;;;6.20;1.00;;;;;;4980823;28;20049;-75
2022/05/02 06:10:10;;;;;;;883.22;339.98;;;7.10;1.00;;;;;;4998687;28;20053;-75
2022/05/02 06:12:38;;;;;;;1999.90;999.90;;;5.70;1.00;;;;;;4997874;28;20482;-75
2022/05/02 06:20:43;;;;;;;1626.45;781.85;;;7.80;1.00;;;;;;4996651;28;20102;-75
2022/05/02 06:23:14;;;;;;;1999.90;999.90;;;6.20;1.00;;;;;;4994470;28;20046;-75
2022/05/02 06:25:43;;;;;;;791.72;245.77;;;7.90;1.00;;;;;;4994950;28;20473;-75
2022/05/02 06:28:09;;;;;;;1679.70;801.85;;;6.50;1.00;;;;;;4995170;28;20042;-75
2022/05/02 06:30:36;;;;;;;1703.75;805.88;;;6.60;1.00;;;;;;4994583;28;20101;-75
2022/05/02 06:33:11;;;;;;;1042.27;420.60;;;6.70;1.00;;;;;;4995220;28;20117;-76
2022/05/02 06:35:54;;;;;;;826.03;274.23;;;6.80;1.00;;;;;;4994440;28;20288;-76
2022/05/02 06:39:08;;;;;;;1641.18;791.22;;;6.90;1.00;;;;;;4995105;28;20046;-76
2022/05/02 06:41:55;;;;;;;1999.90;999.90;;;7.10;1.00;;;;;;4977157;28;20050;-77
2022/05/02 06:45:06;;;;;;;1702.13;804.72;;;7.20;1.00;;;;;;4994728;28;20085;-76
2022/05/02 06:47:44;;;;;;;1999.90;999.90;;;7.40;1.00;;;;;;4899877;29;20107;-75
2022/05/02 06:50:15;;;;;;;1999.90;999.90;;;7.50;1.00;;;;;;4915028;29;20386;-75
2022/05/02 06:53:05;;;;;;;1650.80;788.75;;;7.60;1.00;;;;;;4932155;28;20121;-76
2022/05/02 06:55:36;;;;;;;1999.90;999.90;;;7.80;1.00;;;;;;4994842;28;20054;-75
2022/05/02 06:58:40;;;;;;;1999.90;999.90;;;8.00;1.00;;;;;;4994565;28;20060;-75
2022/05/02 07:01:28;;;;;;;1999.90;999.90;;;9.60;1.00;;;;;;4963301;28;20112;-75
2022/05/02 07:03:56;;;;;;;1999.90;999.90;;;8.20;1.00;;;;;;4976733;28;20081;-75
2022/05/02 07:06:48;;;;;;;1999.90;999.90;;;8.50;1.00;;;;;;4994148;28;20089;-76
2022/05/02 07:09:23;;;;;;;1393.63;617.25;;;8.50;1.00;;;;;;4994596;28;20123;-76
2022/05/02 07:12:16;;;;;;;1999.90;999.90;;;9.90;1.00;;;;;;4994119;28;20446;-76
2022/05/02 07:15:06;;;;;;;1999.90;999.90;;;8.70;1.00;;;;;;4976760;28;20085;-76
2022/05/02 07:17:46;;;;;;;1999.90;999.90;;;8.90;1.00;;;;;;4977100;28;20054;-76
2022/05/02 07:20:21;;;;;;;1999.90;999.90;;;9.20;1.00;;;;;;4993981;28;20054;-76
2022/05/02 07:23:16;;;;;;;1999.90;999.90;;;10.60;1.00;;;;;;4992695;28;20047;-76
2022/05/02 07:25:53;;;;;;;1473.63;477.98;;;12.90;1.00;;;;;;4986175;28;20448;-76
2022/05/02 07:28:44;;;;;;;1697.18;983.90;;;14.80;1.00;;;;;;4993096;28;20175;-76
2022/05/02 07:31:12;;;;;;;1999.90;999.90;;;16.60;1.00;;;;;;4994301;28;20113;-76
2022/05/02 07:33:40;;;;;;;971.05;654.50;;;18.10;1.00;;;;;;4976278;28;20076;-78
2022/05/02 07:36:06;;;;;;;1552.47;999.90;;;18.70;99.90;;;;;;4993347;28;20585;-76
2022/05/02 07:38:34;;;;;;;1140.97;946.00;;;19.30;99.90;;;;;;4976743;28;20093;-77
2022/05/02 07:44:02;;;;;;;902.05;829.92;;;20.90;99.90;;;;;;4993542;28;19930;-74
2022/05/02 07:46:35;;;;;;;624.67;577.33;;;21.70;99.90;;;;;;4976300;28;20043;-76
2022/05/02 07:49:03;;;;;;;614.28;572.63;;;21.10;99.90;;;;;;4976148;28;20451;-76
2022/05/02 07:51:29;;;;;;;;;;;21.20;99.90;;;;;;4976472;28;20054;-75
2022/05/02 07:53:58;;;;;;;577.58;533.55;;;21.80;99.90;;;;;;4991834;28;20384;-77
2022/05/02 07:56:26;;;;;;;404.25;376.77;;;22.70;99.90;;;;;;4976259;28;20470;-77
2022/05/02 07:58:54;;;;;;;460.63;430.77;;;23.10;99.90;;;;;;4993260;28;20061;-77
2022/05/02 08:01:24;;;;;;;495.33;458.23;;;23.70;99.90;;;;;;4959815;28;20062;-76
2022/05/02 08:03:51;;;;;;;481.20;445.05;;;24.10;99.90;;;;;;4975678;28;20114;-77
2022/05/02 08:06:29;;;;;;;448.73;416.58;;;24.10;99.90;;;;;;4993036;28;20054;-76
2022/05/02 08:09:32;;;;;;;436.60;406.40;;;24.80;99.90;;;;;;4993062;28;20054;-77
2022/05/02 08:12:07;;;;;;;537.72;498.50;;;24.70;99.90;;;;;;4991539;28;20372;-76
2022/05/02 08:15:03;;;;;;;206.05;192.27;;;25.30;99.90;;;;;;4992215;28;20146;-77
2022/05/02 08:17:57;;;;;;;494.70;459.45;;;25.80;99.90;;;;;;4992718;28;20129;-76
2022/05/02 08:20:45;;;;;;;193.57;180.27;;;26.40;99.90;;;;;;4963098;28;20050;-76
2022/05/02 08:29:34;;;;;;;417.50;388.33;;;27.60;99.90;;;;;;4992946;28;20094;-76
2022/05/02 08:32:08;;;;;;;279.45;260.17;;;27.80;99.90;;;;;;4992383;28;20050;-77
2022/05/02 08:34:40;;;;;;;270.00;252.20;;;27.70;99.90;;;;;;4992471;28;20052;-75
2022/05/02 08:37:32;;;;;;;348.35;325.25;;;27.80;99.90;;;;;;4992208;28;20086;-77
2022/05/02 08:40:04;;;;;;;156.40;147.00;;;27.90;99.90;;;;;;4975078;28;20050;-75
2022/05/02 08:42:42;;;;;;;103.85;97.43;;;27.80;99.90;;;;;;4992491;28;20161;-75
2022/05/02 08:45:35;;;;;;;87.93;82.72;;;28.10;99.90;;;;;;4990451;28;20591;-76
2022/05/02 08:49:32;;;;;;;139.82;131.63;;;27.70;99.90;;;;;;4975114;28;20356;-75
2022/05/02 08:51:44;;;;;;;180.82;169.85;;;27.90;99.90;;;;;;5003437;28;20058;-75
2022/05/02 08:54:17;;;;;;;137.85;129.48;;;27.80;99.90;;;;;;4996690;28;20062;-76
2022/05/02 08:57:28;;;;;;;237.50;221.25;;;28.60;99.90;;;;;;4983078;28;20058;-78
2022/05/02 09:00:04;;;;;;;112.88;106.32;;;28.80;99.90;;;;;;4976085;28;20043;-78
2022/05/02 09:02:32;;;;;;;108.70;102.15;;;28.80;99.90;;;;;;4973893;28;20047;-76
2022/05/02 09:05:19;;;;;;;90.47;84.97;;;28.80;99.90;;;;;;4972517;28;20125;-75
2022/05/02 09:08:13;;;;;;;74.53;69.70;;;29.10;99.90;;;;;;4972890;28;20046;-76
2022/05/02 09:10:57;;;;;;;85.95;80.53;;;29.40;99.90;;;;;;4972830;28;20051;-76
2022/05/02 09:13:40;;;;;;;80.65;75.40;;;29.20;99.90;;;;;;4972950;28;20047;-76
2022/05/02 09:16:40;;;;;;;102.78;96.38;;;29.40;99.90;;;;;;4972609;28;20043;-76
2022/05/02 09:19:08;;;;;;;74.70;69.85;;;29.40;99.90;;;;;;4925883;28;20059;-76
2022/05/02 09:21:40;;;;;;;137.00;128.57;;;29.10;99.90;;;;;;4955197;28;20047;-76
2022/05/02 09:24:27;;;;;;;89.63;84.47;;;29.70;99.90;;;;;;4972396;28;20049;-76
2022/05/02 09:27:08;;;;;;;103.20;97.10;;;29.60;99.90;;;;;;4972354;28;20059;-76
2022/05/02 09:30:01;;;;;;;88.75;83.53;;;28.80;99.90;;;;;;4973075;28;20491;-76
2022/05/02 09:32:46;;;;;;;141.10;133.07;;;28.80;99.90;;;;;;4972723;28;20046;-76
2022/05/02 09:35:23;;;;;;;103.95;97.50;;;28.80;99.90;;;;;;4972251;28;20038;-76
2022/05/02 09:37:56;;;;;;;151.40;142.73;;;29.00;99.90;;;;;;4972414;28;20109;-76
2022/05/02 09:40:35;;;;;;;102.57;96.20;;;29.60;99.90;;;;;;4955811;28;20062;-76
2022/05/02 09:43:23;;;;;;;292.83;275.65;;;29.90;99.90;;;;;;4972197;28;20047;-76
2022/05/02 09:49:34;;;;;;;393.05;369.60;;;30.10;99.90;;;;;;4972714;28;20051;-76
2022/05/02 09:52:13;;;;;;;394.05;370.08;;;29.90;99.90;;;;;;4971933;28;20046;-77
2022/05/02 09:58:29;;;;;;;282.90;265.80;;;30.00;99.90;;;;;;4995533;28;20161;-75
2022/05/02 10:01:11;;;;;;;488.63;456.67;;;31.00;99.90;;;;;;4995264;28;20062;-74
2022/05/02 10:03:49;;;;;;;305.83;285.52;;;31.70;99.90;;;;;;4995533;28;20474;-76
2022/05/02 10:06:26;;;;;;;265.92;249.50;;;31.70;99.90;;;;;;4995353;28;20474;-76
2022/05/02 10:09:30;;;;;;;254.10;239.23;;;31.40;99.90;;;;;;4977716;28;20046;-76
2022/05/02 10:12:01;;;;;;;290.95;273.95;;;31.20;99.90;;;;;;4984214;28;20141;-76
2022/05/02 10:14:50;;;;;;;462.77;432.50;;;30.90;99.90;;;;;;4995153;28;20494;-76
2022/05/02 10:17:54;;;;;;;268.33;251.70;;;30.80;99.90;;;;;;4978135;28;20376;-76
2022/05/02 10:20:21;;;;;;;244.77;229.95;;;30.90;99.90;;;;;;4995231;28;20053;-76
2022/05/02 10:22:47;;;;;;;;;;;30.60;99.90;;;;;;4978358;28;20400;-77
2022/05/02 10:25:48;;;;;;;253.18;237.32;;;29.80;99.90;;;;;;4994782;28;19988;-76
2022/05/02 10:28:36;;;;;;;226.27;212.75;;;29.50;99.90;;;;;;4995262;28;20133;-77
2022/05/02 10:31:09;;;;;;;303.83;284.60;;;29.30;99.90;;;;;;4977528;28;20082;-76
2022/05/02 10:33:44;;;;;;;248.38;233.45;;;29.50;99.90;;;;;;4995273;28;20065;-76
2022/05/02 10:36:10;;;;;;;205.32;192.55;;;29.60;99.90;;;;;;4977302;28;20047;-76
2022/05/02 10:39:03;;;;;;;346.20;323.73;;;30.10;99.90;;;;;;4977531;28;20105;-76
2022/05/02 10:41:48;;;;;;;202.10;189.68;;;30.90;99.90;;;;;;4994924;28;20129;-76
2022/05/02 10:44:16;;;;;;;292.08;275.23;;;28.50;99.90;;;;;;4977010;28;20143;-76
2022/05/02 10:46:44;;;;;;;253.13;237.02;;;29.30;99.90;;;;;;4994906;28;20049;-76
2022/05/02 10:49:17;;;;;;;410.95;384.20;;;29.70;99.90;;;;;;4993314;28;20104;-76
2022/05/02 10:51:55;;;;;;;170.90;160.35;;;30.30;99.90;;;;;;4976909;28;20141;-76
2022/05/02 10:54:40;;;;;;;217.90;204.27;;;30.60;99.90;;;;;;4978666;28;20148;-76
2022/05/02 10:57:38;;;;;;;207.70;194.90;;;30.60;99.90;;;;;;4995910;28;20521;-76
2022/05/02 11:00:10;;;;;;;408.08;381.23;;;31.10;99.90;;;;;;4974028;28;20084;-75
2022/05/02 11:02:50;;;;;;;261.02;246.40;;;31.30;99.90;;;;;;4979818;28;20499;-75
2022/05/02 11:05:24;;;;;;;279.30;262.90;;;31.10;99.90;;;;;;4994022;28;20049;-77
2022/05/02 11:08:11;;;;;;;171.00;161.10;;;31.30;99.90;;;;;;4993957;28;20054;-77
2022/05/02 11:10:52;;;;;;;188.85;177.50;;;31.10;99.90;;;;;;4977587;28;20043;-77
2022/05/02 11:13:31;;;;;;;230.50;216.80;;;31.60;99.90;;;;;;4994243;28;20125;-77
2022/05/02 11:16:06;;;;;;;209.07;196.40;;;31.90;99.90;;;;;;4976794;28;20050;-76
2022/05/02 11:22:25;;;;;;;249.77;235.32;;;30.20;99.90;;;;;;4976459;28;20138;-76
2022/05/02 11:25:09;;;;;;;356.75;332.77;;;28.70;99.90;;;;;;4994255;28;20046;-76
2022/05/02 11:28:04;;;;;;;155.40;146.02;;;28.00;99.90;;;;;;4994227;28;20477;-76
2022/05/02 11:30:53;;;;;;;195.65;184.75;;;27.30;99.90;;;;;;4960140;28;20069;-75
2022/05/02 11:33:27;;;;;;;145.20;136.93;;;27.70;99.90;;;;;;4993702;28;20046;-74
2022/05/02 11:36:00;;;;;;;147.25;139.00;;;28.60;99.90;;;;;;4993456;28;20524;-75
2022/05/02 11:38:36;;;;;;;151.30;142.60;;;29.40;99.90;;;;;;4993786;28;20042;-76
2022/05/02 11:41:18;;;;;;;168.30;158.50;;;30.40;99.90;;;;;;4993633;28;20434;-76
2022/05/02 11:43:45;;;;;;;479.70;447.23;;;31.10;99.90;;;;;;4976344;28;20100;-75
2022/05/02 11:46:23;;;;;;;164.73;154.88;;;31.80;99.90;;;;;;4993396;28;20483;-75
2022/05/02 11:49:27;;;;;;;182.93;172.32;;;32.20;99.90;;;;;;4993752;28;20499;-76
2022/05/02 11:51:53;;;;;;;281.60;265.55;;;32.30;99.90;;;;;;4993439;28;20364;-75
2022/05/02 11:54:28;;;;;;;520.72;485.60;;;32.20;99.90;;;;;;4993053;28;20062;-76
2022/05/02 11:57:26;;;;;;;129.43;121.93;;;31.90;99.90;;;;;;4993909;28;20135;-75
2022/05/02 11:59:55;;;;;;;235.00;221.45;;;32.30;99.90;;;;;;4993583;28;20407;-76
2022/05/02 12:02:42;;;;;;;126.18;118.80;;;32.40;99.90;;;;;;4993045;28;20047;-74
2022/05/02 12:05:49;;;;;;;267.25;252.27;;;32.30;99.90;;;;;;4992791;28;20386;-75
2022/05/02 12:08:35;;;;;;;145.90;137.20;;;30.90;99.90;;;;;;4913749;29;20062;-75
2022/05/02 12:11:09;;;;;;;128.02;120.78;;;31.30;99.90;;;;;;4990049;28;20510;-75
2022/05/02 12:13:41;;;;;;;173.98;162.52;;;31.80;99.90;;;;;;4993216;28;20042;-75
2022/05/02 12:16:12;;;;;;;208.50;194.77;;;31.40;99.90;;;;;;4992817;28;20539;-75
2022/05/02 12:18:43;;;;;;;101.35;95.25;;;30.60;99.90;;;;;;4992316;28;20046;-75
2022/05/02 12:21:20;;;;;;;124.68;116.15;;;29.20;99.90;;;;;;4990900;28;20134;-75
2022/05/02 12:23:46;;;;;;;223.73;208.77;;;28.00;99.90;;;;;;4975954;28;20042;-75
2022/05/02 12:26:18;;;;;;;591.03;551.42;;;26.80;99.90;;;;;;4975199;28;20054;-75
2022/05/02 12:28:51;;;;;;;272.45;254.80;;;25.90;99.90;;;;;;4993129;28;20359;-74
2022/05/02 12:31:28;;;;;;;369.40;345.23;;;24.70;99.90;;;;;;4975425;28;20454;-75
2022/05/02 12:34:05;;;;;;;271.45;253.35;;;24.30;99.90;;;;;;4992896;28;20046;-75
2022/05/02 12:36:42;;;;;;;510.55;476.50;;;23.70;99.90;;;;;;4992436;28;20046;-75
2022/05/02 12:39:14;;;;;;;480.83;448.45;;;23.20;99.90;;;;;;4992373;28;20057;-75
2022/05/02 12:41:49;;;;;;;448.27;419.13;;;22.60;99.90;;;;;;4992635;28;20069;-76
2022/05/02 12:44:17;;;;;;;415.15;385.95;;;22.30;99.90;;;;;;4992294;28;20050;-75
2022/05/02 12:46:48;;;;;;;278.60;261.10;;;22.20;99.90;;;;;;4974913;28;20108;-75
2022/05/02 12:49:53;;;;;;;584.00;537.92;;;22.00;99.90;;;;;;4992069;28;20054;-76
2022/05/02 12:52:20;;;;;;;203.30;189.95;;;21.60;99.90;;;;;;4992115;28;20047;-75
2022/05/02 12:54:54;;;;;;;318.25;298.10;;;21.40;99.90;;;;;;4992298;28;20112;-75
2022/05/02 13:00:32;;;;;;;509.60;474.00;;;21.00;99.90;;;;;;4991891;28;20097;-75
2022/05/02 13:03:27;;;;;;;295.88;275.88;;;21.00;99.90;;;;;;4974786;28;20050;-75
2022/05/02 13:05:58;;;;;;;427.08;395.42;;;20.80;99.90;;;;;;4991779;28;20074;-75
2022/05/02 13:08:31;;;;;;;474.52;441.83;;;20.80;99.90;;;;;;4991920;28;20077;-75
2022/05/02 13:11:19;;;;;;;556.53;518.08;;;20.70;99.90;;;;;;4992330;28;20062;-75
2022/05/02 13:13:52;;;;;;;642.47;598.43;;;20.50;99.90;;;;;;4992422;28;20050;-76
2022/05/02 13:16:27;;;;;;;241.40;225.50;;;20.40;99.90;;;;;;4959048;28;20054;-75
2022/05/02 13:18:55;;;;;;;577.10;534.75;;;20.20;99.90;;;;;;4992304;28;20522;-75
2022/05/02 13:21:21;;;;;;;625.80;580.90;;;20.10;99.90;;;;;;4991906;28;20423;-76
2022/05/02 13:23:55;;;;;;;386.00;358.95;;;20.00;99.90;;;;;;4992606;28;20122;-75
2022/05/02 13:26:26;;;;;;;510.13;471.00;;;19.70;99.90;;;;;;4974731;28;20054;-75
2022/05/02 13:29:15;;;;;;;602.95;558.70;;;19.70;99.90;;;;;;4992604;28;20050;-76